Time;durP1;ratioP1;P1;durP2;ratioP2;P2;SDS_P1;SDS_P2;PMS_P1;PMS_P2;Temp;Humidity;BMP_temperature;BMP_pressure;BME280_temperature;BME280_humidity;BME280_pressure;Samples;Min_cycle;Max_cycle;Signal;HPM_P1;HPM_P2
2023/02/27 12:32:41;;;;;;;;;;;;;;;;;;5393939;23;19921;-92
2023/02/27 12:35:25;;;;;;;;;;;;;;;;;;4995422;28;20205;-93
2023/02/27 12:37:50;;;;;;;;;;;;;;;;;;4995482;28;19918;-94
2023/02/27 12:40:17;;;;;;;;;;;;;;;;;;4978749;28;20337;-92
2023/02/27 12:42:48;;;;;;;;;;;;;;;;;;4992905;28;19914;-91
2023/02/27 12:45:16;;;;;;;;;;;;;;;;;;4994736;28;19944;-92
2023/02/27 17:19:38;;;;;;;;;;;;;;;;;;4998309;28;19924;-91
2023/02/27 17:22:03;;;;;;;;;;;;;;;;;;5019408;28;19921;-93
2023/02/27 17:24:28;;;;;;;;;;;;;;;;;;5018424;28;19917;-90
2023/02/27 17:26:54;;;;;;;;;;;;;;;;;;5036520;28;20375;-93
2023/02/27 17:29:19;;;;;;;;;;;;;;;;;;5038797;28;20007;-91
2023/02/27 17:31:45;;;;;;;;;;;;;;;;;;5033808;28;19917;-90
2023/02/27 17:34:10;;;;;;;;;;;;;;;;;;5017871;28;19924;-92
2023/02/27 17:36:36;;;;;;;;;;;;;;;;;;5035570;28;20331;-94
2023/02/27 17:39:01;;;;;;;;;;;;;;;;;;5017068;28;19963;-91
2023/02/27 17:41:27;;;;;;;;;;;;;;;;;;5034436;28;19970;-91
2023/02/27 17:43:54;;;;;;;;;;;;;;;;;;5017600;28;19921;-90
2023/02/27 17:46:20;;;;;;;;;;;;;;;;;;5000836;28;19967;-88
2023/02/27 17:48:45;;;;;;;;;;;;;;;;;;5016983;28;19924;-91
2023/02/27 17:51:12;;;;;;;;;;;;;;;;;;5035314;28;19917;-92
2023/02/27 17:53:37;;;;;;;;;;;;;;;;;;5034310;28;19932;-93
2023/02/27 17:56:03;;;;;;;;;;;;;;;;;;5035111;28;19921;-93
2023/02/27 17:58:29;;;;;;;;;;;;;;;;;;5017230;28;19917;-91
2023/02/27 18:00:54;;;;;;;;;;;;;;;;;;5020991;28;19917;-96
2023/02/27 18:03:20;;;;;;;;;;;;;;;;;;5022531;28;19963;-92
2023/02/27 18:05:51;;;;;;;;;;;;;;;;;;5017003;28;20307;-89
2023/02/27 18:08:17;;;;;;;;;;;;;;;;;;5035364;28;19928;-92
2023/02/27 18:10:49;;;;;;;;;;;;;;;;;;5016942;28;19917;-93
2023/02/27 18:13:16;;;;;;;;;;;;;;;;;;5034561;28;19968;-93
2023/02/27 18:15:42;;;;;;;;;;;;;;;;;;5019183;28;20039;-93
2023/02/27 18:18:07;;;;;;;;;;;;;;;;;;5017905;28;19955;-89
2023/02/27 18:20:32;;;;;;;;;;;;;;;;;;5017551;28;19969;-88
2023/02/27 18:22:58;;;;;;;;;;;;;;;;;;5018922;28;19940;-90
2023/02/27 18:25:23;;;;;;;;;;;;;;;;;;5016509;28;19917;-91
2023/02/27 18:27:48;;;;;;;;;;;;;;;;;;5034474;28;19960;-93
2023/02/27 18:30:14;;;;;;;;;;;;;;;;;;5034742;28;19917;-91
2023/02/27 18:32:41;;;;;;;;;;;;;;;;;;5017567;28;20035;-94
2023/02/27 18:35:07;;;;;;;;;;;;;;;;;;5016931;28;19921;-94
2023/02/27 18:37:32;;;;;;;;;;;;;;;;;;5001659;28;19928;-92
2023/02/27 18:39:57;;;;;;;;;;;;;;;;;;5016689;28;19917;-94
2023/02/27 18:42:23;;;;;;;;;;;;;;;;;;5020014;28;19917;-94
2023/02/27 18:44:48;;;;;;;;;;;;;;;;;;5021469;28;19918;-94
2023/02/27 18:47:13;;;;;;;;;;;;;;;;;;5020854;28;19917;-91
2023/02/27 18:49:39;;;;;;;;;;;;;;;;;;5021872;28;19921;-94
2023/02/27 18:52:04;;;;;;;;;;;;;;;;;;5021353;28;19984;-94
2023/02/27 18:54:29;;;;;;;;;;;;;;;;;;5022163;28;19917;-94
2023/02/27 18:57:00;;;;;;;;;;;;;;;;;;5022867;28;19939;-96
2023/02/27 18:59:26;;;;;;;;;;;;;;;;;;5020773;28;19967;-91
2023/02/27 19:01:51;;;;;;;;;;;;;;;;;;5020294;28;19917;-92
2023/02/27 19:04:16;;;;;;;;;;;;;;;;;;5020450;28;20421;-89
2023/02/27 19:06:42;;;;;;;;;;;;;;;;;;5036981;28;19970;-88
2023/02/27 19:09:09;;;;;;;;;;;;;;;;;;5037455;28;20374;-92
2023/02/27 19:11:34;;;;;;;;;;;;;;;;;;5019464;28;19917;-89
2023/02/27 19:14:04;;;;;;;;;;;;;;;;;;5019117;28;19940;-89
2023/02/27 19:16:29;;;;;;;;;;;;;;;;;;5018959;28;19940;-89
2023/02/27 19:18:58;;;;;;;;;;;;;;;;;;5036752;28;19917;-88
2023/02/27 19:21:25;;;;;;;;;;;;;;;;;;5038315;28;19955;-92
2023/02/27 19:23:50;;;;;;;;;;;;;;;;;;5036959;28;20287;-88
2023/02/27 19:26:16;;;;;;;;;;;;;;;;;;5036922;28;19921;-89
2023/02/27 19:28:41;;;;;;;;;;;;;;;;;;5019396;28;19917;-89
2023/02/27 19:31:08;;;;;;;;;;;;;;;;;;5019384;28;20333;-91
2023/02/27 19:33:33;;;;;;;;;;;;;;;;;;5021657;28;19917;-93
2023/02/27 19:35:59;;;;;;;;;;;;;;;;;;5021174;28;19913;-88
2023/02/27 19:38:25;;;;;;;;;;;;;;;;;;5018891;28;20003;-90
2023/02/27 19:40:50;;;;;;;;;;;;;;;;;;5036534;28;20382;-89
2023/02/27 19:43:16;;;;;;;;;;;;;;;;;;5037549;28;19917;-88
2023/02/27 19:45:41;;;;;;;;;;;;;;;;;;5036486;28;19963;-89
2023/02/27 19:48:07;;;;;;;;;;;;;;;;;;5019055;28;19921;-89
2023/02/27 19:50:33;;;;;;;;;;;;;;;;;;5036595;28;19917;-88
2023/02/27 19:52:58;;;;;;;;;;;;;;;;;;5035630;28;19924;-90
2023/02/27 19:55:24;;;;;;;;;;;;;;;;;;5035791;28;19917;-89
2023/02/27 19:57:49;;;;;;;;;;;;;;;;;;5037116;28;20008;-91
2023/02/27 20:00:15;;;;;;;;;;;;;;;;;;5018898;28;19987;-95
2023/02/27 20:02:40;;;;;;;;;;;;;;;;;;5010244;28;19960;-91
2023/02/27 20:05:10;;;;;;;;;;;;;;;;;;5019854;28;19921;-96
2023/02/27 20:07:36;;;;;;;;;;;;;;;;;;5025505;28;19917;-96
2023/02/27 20:10:01;;;;;;;;;;;;;;;;;;5029121;28;19917;-94
2023/02/27 20:12:27;;;;;;;;;;;;;;;;;;5026501;23;20372;-96
2023/02/27 20:14:52;;;;;;;;;;;;;;;;;;5012317;28;19964;-96
2023/02/27 20:17:18;;;;;;;;;;;;;;;;;;5014017;28;19949;-96
2023/02/27 20:19:43;;;;;;;;;;;;;;;;;;5010382;28;19925;-96
2023/02/27 20:22:08;;;;;;;;;;;;;;;;;;5003755;28;20380;-94
2023/02/27 20:24:34;;;;;;;;;;;;;;;;;;4999236;28;19980;-95
2023/02/27 20:26:59;;;;;;;;;;;;;;;;;;4999875;28;20442;-93
2023/02/27 20:29:25;;;;;;;;;;;;;;;;;;5000111;28;20253;-96
2023/02/27 20:31:51;;;;;;;;;;;;;;;;;;4999850;28;19918;-93
2023/02/27 20:34:21;;;;;;;;;;;;;;;;;;4999100;28;20353;-94
2023/02/27 20:36:48;;;;;;;;;;;;;;;;;;4999286;28;19921;-93
2023/02/27 20:39:14;;;;;;;;;;;;;;;;;;4999140;28;19918;-93
2023/02/27 20:41:39;;;;;;;;;;;;;;;;;;4998843;28;19929;-94
2023/02/27 20:44:07;;;;;;;;;;;;;;;;;;5008910;28;19918;-96
2023/02/27 20:46:46;;;;;;;;;;;;;;;;;;5047014;23;19925;-96
2023/02/27 20:49:14;;;;;;;;;;;;;;;;;;5031810;28;19905;-95
2023/02/27 20:51:40;;;;;;;;;;;;;;;;;;5018121;23;19926;-95
2023/02/27 20:54:09;;;;;;;;;;;;;;;;;;5018717;23;19981;-95
2023/02/27 20:56:53;;;;;;;;;;;;;;;;;;5036134;23;19932;-96
2023/02/27 20:59:31;;;;;;;;;;;;;;;;;;5033533;28;19917;-96
2023/02/27 21:01:58;;;;;;;;;;;;;;;;;;5037463;28;20347;-96
2023/02/27 21:04:45;;;;;;;;;;;;;;;;;;5110649;23;19925;-96
2023/02/27 21:07:28;;;;;;;;;;;;;;;;;;5014942;28;19918;-96
2023/02/27 21:10:12;;;;;;;;;;;;;;;;;;5013084;28;19947;-96
2023/02/27 21:12:43;;;;;;;;;;;;;;;;;;4995017;28;19906;-96
2023/02/27 21:15:09;;;;;;;;;;;;;;;;;;5038614;23;19929;-96
2023/02/27 21:17:54;;;;;;;;;;;;;;;;;;5346932;23;20020;-96
2023/02/27 21:20:20;;;;;;;;;;;;;;;;;;5041105;23;19925;-95
2023/02/27 21:22:48;;;;;;;;;;;;;;;;;;5026992;28;19930;-96
2023/02/27 21:28:23;;;;;;;;;;;;;;;;;;5887688;23;19972;-96
2023/02/27 21:33:24;;;;;;;;;;;;;;;;;;5399015;23;19932;-94
2023/02/27 21:38:31;;;;;;;;;;;;;;;;;;5244329;23;19926;-95
2023/02/27 21:41:05;;;;;;;;;;;;;;;;;;5003189;28;19922;-96
2023/02/27 21:43:31;;;;;;;;;;;;;;;;;;5005151;28;19968;-95
2023/02/27 21:45:56;;;;;;;;;;;;;;;;;;5004347;28;19917;-96
2023/02/27 21:48:24;;;;;;;;;;;;;;;;;;4996217;28;19918;-96
2023/02/27 21:50:49;;;;;;;;;;;;;;;;;;5002877;28;19952;-96
2023/02/27 21:53:15;;;;;;;;;;;;;;;;;;5009164;28;19918;-96
2023/02/27 21:55:40;;;;;;;;;;;;;;;;;;5007029;28;19936;-95
2023/02/27 21:58:09;;;;;;;;;;;;;;;;;;5001219;28;19917;-96
2023/02/27 22:00:34;;;;;;;;;;;;;;;;;;4997690;28;19921;-96
2023/02/27 22:03:00;;;;;;;;;;;;;;;;;;5002914;28;19920;-96
2023/02/27 22:05:25;;;;;;;;;;;;;;;;;;5003941;28;19918;-95
2023/02/27 22:07:51;;;;;;;;;;;;;;;;;;5003244;28;19939;-96
2023/02/27 22:10:16;;;;;;;;;;;;;;;;;;5000890;28;19977;-96
2023/02/27 22:13:07;;;;;;;;;;;;;;;;;;5006689;28;19917;-95
2023/02/27 22:31:59;;;;;;;;;;;;;;;;;;6016491;23;20019;-96
2023/02/27 22:34:26;;;;;;;;;;;;;;;;;;5030329;28;20292;-93
2023/02/27 22:36:51;;;;;;;;;;;;;;;;;;4996327;28;20372;-91
2023/02/27 22:39:17;;;;;;;;;;;;;;;;;;4998808;28;19965;-90
